createdAt,value
2019-02-24T00:00:45.942Z,0.10
2019-02-24T00:03:19.842Z,0.10
2019-02-24T00:05:52.153Z,0.00
2019-02-24T00:08:24.374Z,0.20
2019-02-24T00:10:55.212Z,0.20
2019-02-24T00:13:25.673Z,0.20
2019-02-24T00:16:00.254Z,0.30
2019-02-24T00:18:32.046Z,0.30
2019-02-24T00:21:02.484Z,0.10
2019-02-24T00:23:35.442Z,0.10
2019-02-24T00:26:07.243Z,0.00
2019-02-24T00:28:38.673Z,0.00
2019-02-24T00:31:11.015Z,0.30
2019-02-24T00:33:42.883Z,0.30
2019-02-24T00:36:15.045Z,0.30
2019-02-24T00:38:46.791Z,0.50
2019-02-24T00:41:18.976Z,0.10
2019-02-24T00:43:50.731Z,0.30
2019-02-24T00:46:22.669Z,0.00
2019-02-24T00:48:55.397Z,0.10
2019-02-24T00:51:26.112Z,0.10
2019-02-24T00:53:58.520Z,0.00
2019-02-24T00:56:28.980Z,0.10
2019-02-24T00:58:59.500Z,-0.10
2019-02-24T01:01:32.550Z,0.20
2019-02-24T01:04:06.152Z,0.10
2019-02-24T01:06:38.236Z,0.00
2019-02-24T01:09:09.826Z,-0.20
2019-02-24T01:11:41.936Z,0.00
2019-02-24T01:14:12.362Z,-0.10
2019-02-24T01:16:43.066Z,-0.20
2019-02-24T01:19:13.921Z,-0.10
2019-02-24T01:21:46.539Z,-0.20
2019-02-24T01:24:16.915Z,0.00
2019-02-24T01:26:49.305Z,-0.20
2019-02-24T01:29:19.774Z,-0.20
2019-02-24T01:31:50.177Z,-0.10
2019-02-24T01:34:22.027Z,-0.20
2019-02-24T01:36:52.445Z,-0.10
2019-02-24T01:39:25.909Z,0.00
2019-02-24T01:41:58.114Z,-0.10
2019-02-24T01:44:29.257Z,-0.20
2019-02-24T01:47:00.023Z,-0.20
2019-02-24T01:49:31.863Z,-0.10
2019-02-24T01:52:03.611Z,-0.20
2019-02-24T01:54:35.503Z,-0.20
2019-02-24T01:57:05.882Z,-0.20
2019-02-24T01:59:38.202Z,-0.10
2019-02-24T02:02:10.060Z,-0.20
2019-02-24T02:04:41.044Z,-0.20
2019-02-24T02:07:11.526Z,-0.40
2019-02-24T02:09:43.389Z,-0.10
2019-02-24T02:12:15.393Z,-0.20
2019-02-24T02:14:46.231Z,-0.20
2019-02-24T02:17:18.126Z,-0.30
2019-02-24T02:19:49.740Z,-0.30
2019-02-24T02:22:20.180Z,-0.10
2019-02-24T02:24:51.096Z,-0.20
2019-02-24T02:27:21.647Z,-0.30
2019-02-24T02:29:52.410Z,-0.40
2019-02-24T02:32:23.276Z,-0.30
2019-02-24T02:34:55.161Z,-0.30
2019-02-24T02:37:25.581Z,-0.40
2019-02-24T02:39:57.080Z,-0.40
2019-02-24T02:42:27.846Z,-0.50
2019-02-24T02:45:02.271Z,-0.40
2019-02-24T02:47:33.738Z,-0.40
2019-02-24T02:50:05.215Z,-0.60
2019-02-24T02:52:38.478Z,-0.50
2019-02-24T02:55:12.873Z,-0.60
2019-02-24T02:57:47.197Z,-0.50
2019-02-24T03:00:31.951Z,-0.60
2019-02-24T03:03:02.723Z,-0.60
2019-02-24T03:05:35.895Z,-0.50
2019-02-24T03:08:12.177Z,-0.60
2019-02-24T03:10:46.088Z,-0.20
2019-02-24T03:13:16.713Z,-0.40
2019-02-24T03:15:47.113Z,-0.50
2019-02-24T03:18:19.002Z,-0.30
2019-02-24T03:20:52.151Z,-0.60
2019-02-24T03:23:24.279Z,-0.50
2019-02-24T03:25:54.645Z,-0.60
2019-02-24T03:28:25.186Z,-0.50
2019-02-24T03:30:57.404Z,-0.40
2019-02-24T03:33:30.501Z,-0.40
2019-02-24T03:36:02.017Z,-0.40
2019-02-24T03:38:35.518Z,-0.40
2019-02-24T03:41:05.974Z,-0.40
2019-02-24T03:43:39.162Z,-0.40
2019-02-24T03:46:09.738Z,-0.40
2019-02-24T03:48:42.178Z,-0.50
2019-02-24T03:51:12.627Z,-0.40
2019-02-24T03:53:45.237Z,-0.70
2019-02-24T03:56:17.856Z,-0.70
2019-02-24T03:58:48.780Z,-0.60
2019-02-24T04:01:20.370Z,-0.60
2019-02-24T04:03:53.854Z,-0.60
2019-02-24T04:06:24.583Z,-0.60
2019-02-24T04:08:55.701Z,-0.60
2019-02-24T04:11:26.147Z,-0.70
2019-02-24T04:13:58.346Z,-0.50
2019-02-24T04:16:30.896Z,-0.80
2019-02-24T04:19:02.823Z,-0.60
2019-02-24T04:21:33.656Z,-0.70
2019-02-24T04:24:04.402Z,-0.80
2019-02-24T04:26:36.605Z,-0.70
2019-02-24T04:29:08.512Z,-0.80
2019-02-24T04:31:39.532Z,-0.60
2019-02-24T04:34:10.305Z,-0.90
2019-02-24T04:36:42.190Z,-1.00
2019-02-24T04:39:14.053Z,-0.90
2019-02-24T04:41:46.086Z,-0.80
2019-02-24T04:44:18.998Z,-0.80
2019-02-24T04:46:50.931Z,-0.90
2019-02-24T04:49:24.665Z,-0.90
2019-02-24T04:51:55.378Z,-0.80
2019-02-24T04:54:25.794Z,-0.80
2019-02-24T04:56:58.019Z,-0.80
2019-02-24T04:59:34.933Z,-0.90
2019-02-24T05:02:03.220Z,-0.90
2019-02-24T05:04:35.728Z,-1.10
2019-02-24T05:07:06.466Z,-1.10
2019-02-24T05:09:37.308Z,-0.80
2019-02-24T05:12:08.033Z,-0.90
2019-02-24T05:14:38.486Z,-0.80
2019-02-24T05:17:11.779Z,-1.00
2019-02-24T05:19:44.330Z,-1.00
2019-02-24T05:22:15.706Z,-0.90
2019-02-24T05:24:48.150Z,-1.20
2019-02-24T05:27:20.045Z,-1.10
2019-02-24T05:29:51.387Z,-1.10
2019-02-24T05:32:21.786Z,-0.90
2019-02-24T05:34:53.341Z,-1.00
2019-02-24T05:37:24.832Z,-1.00
2019-02-24T05:39:55.245Z,-1.00
2019-02-24T05:42:25.673Z,-1.00
2019-02-24T05:44:55.993Z,-1.00
2019-02-24T05:47:26.427Z,-1.00
2019-02-24T05:49:57.954Z,-1.10
2019-02-24T05:52:28.679Z,-1.10
2019-02-24T05:55:01.700Z,-1.00
2019-02-24T05:57:33.986Z,-1.00
2019-02-24T06:00:06.520Z,-1.20
2019-02-24T06:02:40.153Z,-1.00
2019-02-24T06:05:10.542Z,-1.00
2019-02-24T06:07:41.928Z,-1.00
2019-02-24T06:10:14.003Z,-1.00
2019-02-24T06:12:46.923Z,-1.20
2019-02-24T06:15:23.719Z,-1.30
2019-02-24T06:17:54.202Z,-1.10
2019-02-24T06:20:25.025Z,-1.00
2019-02-24T06:22:56.075Z,-1.10
2019-02-24T06:25:26.479Z,-1.00
2019-02-24T06:27:57.986Z,-1.00
2019-02-24T06:30:28.746Z,-1.00
2019-02-24T06:32:59.792Z,-1.00
2019-02-24T06:35:30.591Z,-0.80
2019-02-24T06:38:00.976Z,-0.80
2019-02-24T06:40:31.760Z,-0.80
2019-02-24T06:43:05.143Z,-0.80
2019-02-24T06:45:39.828Z,-0.80
2019-02-24T06:48:10.898Z,-0.80
2019-02-24T06:51:00.042Z,-0.80
2019-02-24T06:53:30.845Z,-0.80
2019-02-24T06:56:01.899Z,-0.60
2019-02-24T06:58:33.466Z,0.00
2019-02-24T07:01:04.474Z,1.10
2019-02-24T07:03:34.895Z,1.90
2019-02-24T07:06:06.426Z,2.50
2019-02-24T07:08:39.897Z,3.90
2019-02-24T07:11:12.739Z,4.40
2019-02-24T07:13:43.137Z,5.30
2019-02-24T07:16:13.477Z,6.10
2019-02-24T07:18:44.327Z,6.20
2019-02-24T07:21:15.770Z,6.50
2019-02-24T07:23:50.121Z,6.40
2019-02-24T07:26:21.789Z,6.20
2019-02-24T07:28:54.601Z,5.90
2019-02-24T07:31:26.068Z,5.80
2019-02-24T07:34:00.746Z,6.10
2019-02-24T07:36:32.677Z,5.60
2019-02-24T07:39:03.958Z,5.60
2019-02-24T07:41:37.478Z,5.80
2019-02-24T07:44:11.272Z,5.60
2019-02-24T07:46:41.699Z,5.80
2019-02-24T07:49:14.605Z,5.70
2019-02-24T07:51:45.382Z,5.60
2019-02-24T07:54:17.562Z,5.50
2019-02-24T07:56:47.931Z,5.30
2019-02-24T07:59:21.332Z,5.10
2019-02-24T08:01:52.841Z,4.80
2019-02-24T08:04:24.083Z,5.30
2019-02-24T08:06:54.459Z,5.50
2019-02-24T08:09:26.553Z,6.00
2019-02-24T08:11:58.466Z,5.90
2019-02-24T08:14:29.285Z,6.40
2019-02-24T08:17:03.388Z,6.80
2019-02-24T08:19:34.161Z,7.10
2019-02-24T08:22:04.623Z,6.80
2019-02-24T08:24:35.050Z,6.70
2019-02-24T08:27:06.898Z,5.40
2019-02-24T08:29:38.619Z,5.20
2019-02-24T08:32:09.362Z,4.80
2019-02-24T08:34:42.015Z,4.00
2019-02-24T08:37:13.565Z,3.90
2019-02-24T08:39:49.353Z,3.60
2019-02-24T08:42:20.599Z,3.60
2019-02-24T08:44:54.192Z,3.60
2019-02-24T08:47:26.175Z,3.70
2019-02-24T08:50:02.882Z,3.10
2019-02-24T08:52:38.247Z,3.40
2019-02-24T08:55:10.147Z,3.70
2019-02-24T08:57:41.655Z,4.10
2019-02-24T09:00:16.302Z,5.40
2019-02-24T09:02:50.100Z,6.60
2019-02-24T09:05:23.382Z,7.50
2019-02-24T09:07:57.331Z,8.40
2019-02-24T09:10:30.694Z,9.20
2019-02-24T09:13:04.052Z,9.90
2019-02-24T09:15:34.451Z,11.10
2019-02-24T09:18:05.211Z,11.80
2019-02-24T09:20:39.202Z,12.20
2019-02-24T09:23:12.148Z,12.90
2019-02-24T09:25:43.538Z,13.30
2019-02-24T09:28:16.990Z,13.20
2019-02-24T09:30:49.284Z,13.30
2019-02-24T09:33:22.628Z,13.80
2019-02-24T09:35:56.790Z,14.40
2019-02-24T09:38:30.413Z,15.30
2019-02-24T09:41:03.484Z,14.50
2019-02-24T09:43:36.749Z,13.70
2019-02-24T09:46:08.488Z,13.30
2019-02-24T09:48:41.126Z,12.80
2019-02-24T09:51:14.053Z,11.40
2019-02-24T09:53:46.912Z,10.20
2019-02-24T09:56:18.128Z,9.20
2019-02-24T09:58:48.639Z,8.40
2019-02-24T10:01:20.765Z,8.90
2019-02-24T10:03:53.643Z,9.00
2019-02-24T10:06:27.033Z,9.60
2019-02-24T10:09:00.558Z,9.60
2019-02-24T10:11:37.384Z,9.80
2019-02-24T10:14:11.570Z,9.50
2019-02-24T10:16:44.448Z,9.20
2019-02-24T10:19:15.563Z,9.40
2019-02-24T10:21:52.459Z,8.90
2019-02-24T10:24:24.517Z,8.20
2019-02-24T10:26:56.066Z,8.00
2019-02-24T10:29:30.110Z,7.60
2019-02-24T10:32:00.589Z,7.20
2019-02-24T10:34:33.474Z,7.20
2019-02-24T10:37:06.870Z,6.80
2019-02-24T10:39:40.818Z,6.50
2019-02-24T10:42:12.141Z,6.80
2019-02-24T10:44:46.678Z,6.60
2019-02-24T10:47:19.869Z,6.60
2019-02-24T10:49:58.025Z,6.30
2019-02-24T10:52:31.133Z,6.60
2019-02-24T10:55:02.946Z,6.50
2019-02-24T10:57:34.490Z,6.90
2019-02-24T11:00:16.189Z,6.90
2019-02-24T11:02:48.358Z,6.80
2019-02-24T11:05:23.643Z,7.10
2019-02-24T11:07:58.085Z,7.00
2019-02-24T11:10:28.932Z,6.90
2019-02-24T11:13:03.989Z,7.10
2019-02-24T11:15:39.547Z,7.00
2019-02-24T11:18:14.664Z,7.20
2019-02-24T11:20:46.806Z,7.70
2019-02-24T11:23:19.614Z,7.50
2019-02-24T11:25:53.461Z,7.80
2019-02-24T11:28:25.126Z,8.20
2019-02-24T11:30:57.643Z,8.70
2019-02-24T11:33:30.382Z,8.80
2019-02-24T11:36:03.804Z,8.60
2019-02-24T11:38:37.504Z,8.60
2019-02-24T11:41:10.635Z,8.40
2019-02-24T11:43:43.235Z,8.70
2019-02-24T11:46:14.178Z,8.50
2019-02-24T11:48:47.163Z,8.90
2019-02-24T11:51:21.555Z,8.90
2019-02-24T11:53:52.038Z,8.70
2019-02-24T11:56:22.693Z,8.50
2019-02-24T11:58:58.671Z,8.30
2019-02-24T12:01:31.475Z,8.70
2019-02-24T12:04:03.421Z,9.30
2019-02-24T12:06:38.364Z,9.20
2019-02-24T12:09:10.492Z,9.30
2019-02-24T12:11:40.968Z,8.90
2019-02-24T12:14:15.766Z,8.70
2019-02-24T12:16:51.115Z,8.80
2019-02-24T12:19:25.779Z,8.50
2019-02-24T12:21:58.929Z,8.30
2019-02-24T12:24:34.822Z,8.10
2019-02-24T12:27:08.769Z,8.20
2019-02-24T12:29:41.680Z,8.40
2019-02-24T12:32:13.464Z,8.20
2019-02-24T12:34:46.511Z,8.40
2019-02-24T12:37:19.924Z,8.20
2019-02-24T12:39:54.761Z,8.20
2019-02-24T12:42:25.485Z,8.60
2019-02-24T12:44:57.682Z,8.30
2019-02-24T12:47:30.338Z,8.20
2019-02-24T12:50:07.734Z,8.30
2019-02-24T12:52:39.015Z,8.40
2019-02-24T12:55:11.861Z,8.60
2019-02-24T12:57:43.740Z,8.80
2019-02-24T13:00:17.457Z,8.30
2019-02-24T13:02:47.952Z,8.50
2019-02-24T13:05:24.651Z,8.40
2019-02-24T13:07:57.918Z,8.50
2019-02-24T13:10:29.551Z,8.30
2019-02-24T13:13:03.337Z,8.50
2019-02-24T13:15:35.441Z,8.70
2019-02-24T13:18:08.248Z,8.30
2019-02-24T13:20:40.194Z,8.50
2019-02-24T13:23:13.209Z,8.50
2019-02-24T13:25:47.795Z,8.30
2019-02-24T13:28:19.988Z,8.20
2019-02-24T13:30:50.833Z,8.50
2019-02-24T13:33:21.600Z,8.30
2019-02-24T13:35:55.168Z,8.40
2019-02-24T13:38:26.074Z,8.50
2019-02-24T13:40:59.788Z,8.30
2019-02-24T13:43:30.563Z,8.30
2019-02-24T13:46:02.633Z,8.40
2019-02-24T13:48:35.665Z,8.30
2019-02-24T13:51:06.130Z,8.40
2019-02-24T13:53:38.841Z,8.20
2019-02-24T13:56:10.785Z,8.50
2019-02-24T13:58:42.885Z,8.50
2019-02-24T14:01:16.007Z,8.80
2019-02-24T14:03:46.447Z,8.80
2019-02-24T14:06:20.372Z,8.80
2019-02-24T14:08:52.704Z,8.90
2019-02-24T14:11:26.688Z,8.80
2019-02-24T14:13:58.151Z,8.70
2019-02-24T14:16:30.134Z,8.80
2019-02-24T14:19:02.843Z,8.60
2019-02-24T14:21:35.037Z,8.90
2019-02-24T14:24:07.256Z,8.60
2019-02-24T14:26:37.989Z,8.70
2019-02-24T14:29:09.800Z,8.80
2019-02-24T14:31:43.907Z,8.80
2019-02-24T14:34:16.279Z,8.80
2019-02-24T14:36:47.808Z,8.50
2019-02-24T14:39:18.846Z,8.80
2019-02-24T14:41:53.588Z,8.60
2019-02-24T14:44:23.913Z,8.40
2019-02-24T14:46:57.949Z,8.70
2019-02-24T14:49:31.119Z,8.60
2019-02-24T14:52:03.005Z,8.40
2019-02-24T14:54:35.570Z,8.30
2019-02-24T14:57:07.442Z,7.90
2019-02-24T14:59:38.684Z,7.90
2019-02-24T15:02:09.117Z,7.70
2019-02-24T15:04:44.338Z,7.90
2019-02-24T15:07:17.403Z,7.70
2019-02-24T15:09:48.894Z,7.70
2019-02-24T15:12:19.763Z,7.50
2019-02-24T15:14:50.953Z,7.50
2019-02-24T15:17:22.478Z,7.90
2019-02-24T15:19:55.013Z,7.80
2019-02-24T15:22:27.278Z,7.60
2019-02-24T15:24:58.262Z,7.50
2019-02-24T15:27:29.155Z,7.70
2019-02-24T15:30:01.070Z,7.90
2019-02-24T15:32:31.548Z,7.50
2019-02-24T15:35:08.992Z,7.40
2019-02-24T15:37:41.537Z,7.80
2019-02-24T15:40:13.741Z,7.70
2019-02-24T15:42:45.622Z,7.50
2019-02-24T15:45:17.477Z,7.70
2019-02-24T15:47:49.574Z,7.50
2019-02-24T15:50:21.129Z,7.50
2019-02-24T15:52:51.934Z,7.40
2019-02-24T15:55:24.170Z,7.40
2019-02-24T15:57:57.117Z,7.60
2019-02-24T16:00:29.362Z,7.40
2019-02-24T16:03:02.294Z,7.50
2019-02-24T16:05:34.434Z,7.30
2019-02-24T16:08:05.271Z,7.20
2019-02-24T16:10:39.177Z,7.20
2019-02-24T16:13:16.649Z,7.30
2019-02-24T16:15:42.002Z,7.40
2019-02-24T16:18:12.490Z,7.10
2019-02-24T16:20:43.546Z,7.00
2019-02-24T16:23:15.540Z,7.30
2019-02-24T16:25:46.974Z,7.30
2019-02-24T16:28:17.625Z,6.90
2019-02-24T16:30:52.972Z,6.90
2019-02-24T16:33:29.296Z,6.80
2019-02-24T16:36:01.406Z,7.20
2019-02-24T16:38:36.303Z,6.90
2019-02-24T16:41:08.149Z,6.60
2019-02-24T16:43:41.744Z,6.50
2019-02-24T16:46:14.642Z,6.50
2019-02-24T16:48:48.044Z,6.70
2019-02-24T16:51:20.109Z,6.70
2019-02-24T16:53:54.746Z,6.60
2019-02-24T16:56:25.134Z,6.60
2019-02-24T16:58:57.128Z,6.50
2019-02-24T17:01:30.894Z,6.70
2019-02-24T17:04:02.699Z,6.30
2019-02-24T17:06:38.541Z,6.20
2019-02-24T17:09:09.709Z,6.40
2019-02-24T17:11:43.085Z,6.20
2019-02-24T17:14:13.789Z,6.20
2019-02-24T17:16:45.685Z,6.20
2019-02-24T17:19:17.594Z,5.90
2019-02-24T17:21:50.872Z,5.80
2019-02-24T17:24:21.770Z,5.80
2019-02-24T17:26:53.636Z,6.00
2019-02-24T17:29:25.837Z,6.10
2019-02-24T17:31:56.656Z,5.60
2019-02-24T17:34:28.983Z,5.90
2019-02-24T17:37:01.276Z,5.80
2019-02-24T17:39:34.914Z,6.00
2019-02-24T17:42:05.469Z,5.70
2019-02-24T17:44:36.371Z,5.80
2019-02-24T17:47:10.072Z,5.60
2019-02-24T17:49:42.091Z,5.70
2019-02-24T17:52:14.318Z,5.40
2019-02-24T17:54:44.752Z,5.40
2019-02-24T17:57:16.606Z,5.40
2019-02-24T17:59:48.327Z,5.20
2019-02-24T18:02:23.515Z,5.30
2019-02-24T18:04:59.738Z,5.40
2019-02-24T18:07:31.520Z,5.20
2019-02-24T18:10:03.719Z,5.30
2019-02-24T18:12:36.149Z,5.20
2019-02-24T18:15:08.420Z,5.30
2019-02-24T18:17:39.880Z,5.30
2019-02-24T18:20:13.475Z,5.20
2019-02-24T18:22:45.192Z,5.40
2019-02-24T18:25:17.193Z,5.20
2019-02-24T18:27:49.447Z,5.20
2019-02-24T18:30:21.838Z,5.20
2019-02-24T18:32:52.279Z,4.80
2019-02-24T18:35:23.882Z,5.10
2019-02-24T18:37:57.661Z,5.00
2019-02-24T18:40:29.893Z,4.80
2019-02-24T18:43:00.954Z,4.90
2019-02-24T18:45:32.562Z,5.00
2019-02-24T18:48:04.616Z,4.90
2019-02-24T18:50:36.423Z,4.90
2019-02-24T18:53:07.978Z,4.80
2019-02-24T18:55:41.334Z,4.90
2019-02-24T18:58:13.151Z,4.90
2019-02-24T19:00:48.734Z,4.80
2019-02-24T19:03:21.501Z,4.60
2019-02-24T19:05:54.495Z,4.60
2019-02-24T19:08:30.733Z,4.80
2019-02-24T19:11:03.587Z,4.80
2019-02-24T19:13:37.322Z,4.40
2019-02-24T19:16:10.074Z,4.40
2019-02-24T19:18:42.266Z,4.30
2019-02-24T19:21:12.774Z,4.40
2019-02-24T19:23:46.286Z,4.60
2019-02-24T19:26:19.424Z,4.20
2019-02-24T19:28:55.643Z,4.30
2019-02-24T19:31:28.862Z,4.40
2019-02-24T19:34:06.796Z,4.50
2019-02-24T19:36:36.066Z,4.60
2019-02-24T19:39:09.445Z,4.50
2019-02-24T19:41:42.297Z,4.50
2019-02-24T19:44:17.671Z,4.30
2019-02-24T19:46:48.752Z,4.30
2019-02-24T19:49:20.758Z,4.10
2019-02-24T19:51:52.704Z,4.00
2019-02-24T19:54:24.192Z,3.90
2019-02-24T19:56:57.755Z,3.80
2019-02-24T19:59:28.265Z,3.90
2019-02-24T20:02:00.875Z,3.90
2019-02-24T20:04:31.300Z,4.00
2019-02-24T20:07:04.226Z,4.00
2019-02-24T20:09:36.037Z,3.90
2019-02-24T20:12:11.410Z,4.00
2019-02-24T20:14:45.286Z,4.00
2019-02-24T20:17:16.190Z,3.70
2019-02-24T20:19:49.654Z,3.90
2019-02-24T20:22:20.605Z,4.00
2019-02-24T20:24:52.794Z,3.70
2019-02-24T20:27:25.761Z,3.60
2019-02-24T20:29:58.271Z,3.60
2019-02-24T20:32:32.430Z,3.70
2019-02-24T20:35:04.702Z,3.60
2019-02-24T20:37:35.188Z,3.90
2019-02-24T20:40:08.627Z,3.60
2019-02-24T20:42:43.482Z,3.80
2019-02-24T20:45:15.323Z,3.50
2019-02-24T20:47:46.983Z,3.60
2019-02-24T20:50:18.505Z,3.60
2019-02-24T20:52:51.828Z,3.40
2019-02-24T20:55:24.011Z,3.60
2019-02-24T20:57:57.808Z,3.50
2019-02-24T21:00:31.165Z,3.40
2019-02-24T21:03:02.828Z,3.40
2019-02-24T21:05:35.029Z,3.40
2019-02-24T21:08:07.973Z,3.40
2019-02-24T21:10:40.318Z,3.40
2019-02-24T21:13:11.855Z,3.20
2019-02-24T21:15:46.395Z,3.40
2019-02-24T21:18:19.067Z,3.20
2019-02-24T21:20:52.165Z,3.20
2019-02-24T21:23:28.613Z,3.20
2019-02-24T21:26:00.052Z,3.20
2019-02-24T21:28:34.791Z,3.20
2019-02-24T21:31:09.099Z,3.20
2019-02-24T21:33:42.372Z,3.20
2019-02-24T21:36:15.362Z,3.10
2019-02-24T21:38:47.303Z,3.10
2019-02-24T21:41:19.922Z,3.20
2019-02-24T21:43:52.709Z,3.30
2019-02-24T21:46:24.595Z,3.30
2019-02-24T21:48:56.102Z,2.90
2019-02-24T21:51:29.552Z,3.10
2019-02-24T21:54:00.770Z,3.10
2019-02-24T21:56:33.041Z,3.20
2019-02-24T21:59:06.213Z,3.00
2019-02-24T22:01:38.937Z,2.80
2019-02-24T22:04:10.018Z,2.90
2019-02-24T22:06:42.246Z,2.80
2019-02-24T22:09:13.234Z,2.70
2019-02-24T22:11:47.196Z,2.90
2019-02-24T22:14:18.955Z,2.90
2019-02-24T22:16:50.767Z,2.90
2019-02-24T22:19:23.387Z,2.90
2019-02-24T22:21:58.523Z,2.60
2019-02-24T22:24:30.389Z,2.60
2019-02-24T22:27:01.146Z,2.60
2019-02-24T22:29:32.879Z,2.20
2019-02-24T22:32:04.261Z,2.40
2019-02-24T22:34:39.565Z,2.40
2019-02-24T22:37:11.205Z,2.40
2019-02-24T22:39:42.492Z,2.60
2019-02-24T22:42:15.131Z,2.40
2019-02-24T22:44:46.144Z,2.30
2019-02-24T22:47:18.588Z,2.30
2019-02-24T22:49:50.818Z,2.30
2019-02-24T22:52:21.907Z,2.10
2019-02-24T22:54:57.735Z,2.40
2019-02-24T22:57:28.470Z,2.30
2019-02-24T23:00:01.802Z,2.30
2019-02-24T23:02:35.359Z,2.40
2019-02-24T23:05:07.661Z,2.40
2019-02-24T23:07:41.486Z,2.30
2019-02-24T23:10:12.037Z,2.40
2019-02-24T23:12:44.434Z,2.40
2019-02-24T23:15:16.714Z,2.30
2019-02-24T23:17:48.740Z,2.30
2019-02-24T23:20:21.795Z,2.30
2019-02-24T23:22:53.664Z,2.30
2019-02-24T23:25:24.254Z,1.90
2019-02-24T23:27:57.818Z,2.00
2019-02-24T23:30:28.694Z,2.10
2019-02-24T23:33:01.035Z,2.30
2019-02-24T23:35:32.972Z,2.10
2019-02-24T23:38:05.089Z,2.30
2019-02-24T23:40:37.257Z,2.40
2019-02-24T23:43:07.733Z,2.30
2019-02-24T23:45:40.051Z,2.20
2019-02-24T23:48:10.800Z,2.20
2019-02-24T23:50:44.361Z,2.10
2019-02-24T23:53:16.350Z,2.20
2019-02-24T23:55:46.778Z,2.20
2019-02-24T23:58:18.359Z,2.40
